Time;durP1;ratioP1;P1;durP2;ratioP2;P2;SDS_P1;SDS_P2;PMS_P1;PMS_P2;Temp;Humidity;BMP_temperature;BMP_pressure;BME280_temperature;BME280_humidity;BME280_pressure;Samples;Min_cycle;Max_cycle;Signal;HPM_P1;HPM_P2
2024/01/03 00:00:25;;;;;;;11.02;3.83;;;14.00;88.40;;;;;;5094909;28;20043;-79
2024/01/03 00:02:55;;;;;;;16.17;4.25;;;14.00;88.30;;;;;;5094434;28;20384;-80
2024/01/03 00:05:33;;;;;;;10.48;3.70;;;13.90;88.30;;;;;;5094443;28;20039;-80
2024/01/03 00:07:59;;;;;;;13.38;3.63;;;13.90;88.60;;;;;;5094143;28;20035;-81
2024/01/03 00:10:47;;;;;;;15.13;4.20;;;13.90;88.70;;;;;;5094138;28;20036;-80
2024/01/03 00:13:37;;;;;;;10.55;3.80;;;13.90;88.90;;;;;;5094422;28;20534;-79
2024/01/03 00:16:06;;;;;;;16.05;3.67;;;13.90;89.00;;;;;;5093381;28;20036;-79
2024/01/03 00:18:37;;;;;;;14.98;4.22;;;13.90;89.00;;;;;;5094054;28;20380;-79
2024/01/03 00:21:05;;;;;;;15.10;3.78;;;13.90;89.10;;;;;;5093751;28;20111;-78
2024/01/03 00:23:39;;;;;;;11.50;3.63;;;13.90;89.40;;;;;;5093269;28;20499;-80
2024/01/03 00:26:10;;;;;;;12.48;3.83;;;13.90;89.40;;;;;;5093252;28;20032;-78
2024/01/03 00:28:36;;;;;;;14.13;3.42;;;13.90;89.60;;;;;;5093522;28;20432;-79
2024/01/03 00:31:02;;;;;;;15.40;3.90;;;13.90;89.40;;;;;;5093425;28;20052;-78
2024/01/03 00:33:28;;;;;;;13.82;4.07;;;13.90;89.50;;;;;;5093123;28;20511;-80
2024/01/03 00:35:55;;;;;;;13.95;3.90;;;13.90;89.60;;;;;;5092394;28;20123;-79
2024/01/03 00:38:21;;;;;;;13.43;3.83;;;14.00;89.70;;;;;;5093353;28;20028;-80
2024/01/03 00:40:57;;;;;;;13.93;3.53;;;13.90;89.60;;;;;;5093245;28;20034;-79
2024/01/03 00:43:23;;;;;;;8.95;2.92;;;14.00;89.50;;;;;;5093658;28;20083;-80
2024/01/03 00:45:49;;;;;;;15.77;3.50;;;14.00;89.60;;;;;;5093560;28;20091;-79
2024/01/03 00:48:17;;;;;;;12.50;3.28;;;13.90;89.60;;;;;;5093081;28;20028;-79
2024/01/03 00:50:42;;;;;;;9.13;2.92;;;13.90;89.60;;;;;;5092950;28;20036;-79
2024/01/03 00:53:09;;;;;;;13.52;3.30;;;13.90;89.70;;;;;;5093292;28;20039;-78
2024/01/03 00:55:35;;;;;;;14.40;4.18;;;13.90;89.80;;;;;;5093975;28;20048;-79
2024/01/03 00:58:01;;;;;;;9.88;3.25;;;14.00;89.90;;;;;;5099501;28;20078;-79
2024/01/03 01:00:27;;;;;;;10.88;3.20;;;14.00;90.00;;;;;;5099712;28;20391;-78
2024/01/03 01:02:53;;;;;;;11.25;3.17;;;14.00;90.00;;;;;;5099650;28;20032;-79
2024/01/03 01:05:18;;;;;;;16.67;2.97;;;14.00;90.10;;;;;;5099354;28;20039;-78
2024/01/03 01:07:44;;;;;;;11.77;3.20;;;14.00;90.10;;;;;;5099527;28;20032;-78
2024/01/03 01:10:10;;;;;;;14.00;3.50;;;14.00;90.10;;;;;;5098051;28;20085;-78
2024/01/03 01:12:35;;;;;;;14.55;3.65;;;14.00;90.20;;;;;;5099564;28;20495;-80
2024/01/03 01:15:01;;;;;;;18.77;3.90;;;14.00;90.10;;;;;;5099702;28;20040;-79
2024/01/03 01:17:27;;;;;;;9.48;3.15;;;14.00;90.20;;;;;;5099503;28;20515;-77
2024/01/03 01:19:53;;;;;;;8.88;2.50;;;14.00;90.30;;;;;;5099290;28;20032;-78
2024/01/03 01:22:19;;;;;;;9.80;2.85;;;14.00;90.30;;;;;;5097985;28;20106;-78
2024/01/03 01:24:45;;;;;;;12.13;3.45;;;14.00;90.20;;;;;;5099516;28;20039;-79
2024/01/03 01:27:10;;;;;;;13.63;4.30;;;14.00;90.30;;;;;;5099292;28;20139;-79
2024/01/03 01:29:36;;;;;;;11.63;3.08;;;14.00;90.30;;;;;;5099392;28;20028;-80
2024/01/03 01:32:02;;;;;;;17.70;2.95;;;14.00;90.30;;;;;;5099434;28;20036;-76
2024/01/03 01:34:28;;;;;;;11.40;2.60;;;14.00;90.30;;;;;;5099246;28;20526;-79
2024/01/03 01:36:53;;;;;;;16.67;3.05;;;14.00;90.40;;;;;;5099055;28;20028;-80
2024/01/03 01:39:19;;;;;;;12.38;2.60;;;14.00;90.40;;;;;;5099414;28;20032;-79
2024/01/03 01:41:45;;;;;;;12.38;2.60;;;14.00;90.40;;;;;;5099240;28;20039;-79
2024/01/03 01:44:10;;;;;;;12.65;3.25;;;14.00;90.50;;;;;;5099005;28;20052;-80
2024/01/03 01:46:39;;;;;;;14.68;3.10;;;14.00;90.50;;;;;;5100287;28;20107;-80
2024/01/03 01:49:06;;;;;;;9.95;2.78;;;14.00;90.50;;;;;;5099219;28;20048;-77
2024/01/03 01:51:37;;;;;;;10.98;2.65;;;14.00;90.90;;;;;;5098844;28;20510;-78
2024/01/03 01:54:04;;;;;;;11.10;3.42;;;14.00;90.70;;;;;;5099041;28;20044;-78
2024/01/03 01:56:32;;;;;;;13.63;2.85;;;14.00;90.70;;;;;;5099170;28;20032;-79
2024/01/03 01:58:58;;;;;;;13.40;2.80;;;14.00;90.70;;;;;;5100596;28;20036;-79
2024/01/03 02:01:26;;;;;;;11.45;3.28;;;14.00;90.70;;;;;;5098926;28;20055;-78
2024/01/03 02:03:52;;;;;;;10.68;2.55;;;14.00;90.70;;;;;;5099060;28;20039;-78
2024/01/03 02:06:20;;;;;;;9.93;2.80;;;14.00;90.60;;;;;;5098781;28;20042;-78
2024/01/03 02:08:46;;;;;;;13.57;2.47;;;14.00;90.70;;;;;;5095279;28;20036;-78
2024/01/03 02:11:12;;;;;;;15.27;2.90;;;14.10;90.70;;;;;;5095489;28;20034;-78
2024/01/03 02:13:37;;;;;;;15.77;3.30;;;14.10;90.80;;;;;;5099299;28;20514;-80
2024/01/03 02:16:04;;;;;;;12.20;2.95;;;14.10;90.80;;;;;;5095825;28;20028;-78
2024/01/03 02:18:29;;;;;;;13.13;3.08;;;14.10;90.70;;;;;;5095508;28;20043;-79
2024/01/03 02:20:56;;;;;;;11.90;2.70;;;14.10;90.80;;;;;;5095309;28;20033;-79
2024/01/03 02:23:24;;;;;;;13.98;2.75;;;14.10;90.80;;;;;;5095488;28;20539;-78
2024/01/03 02:25:50;;;;;;;8.07;2.42;;;14.10;90.80;;;;;;5095473;28;20032;-79
2024/01/03 02:28:16;;;;;;;10.13;2.50;;;14.10;90.80;;;;;;5096172;28;20037;-79
2024/01/03 02:30:44;;;;;;;14.52;3.17;;;14.10;90.90;;;;;;5095566;28;20111;-79
2024/01/03 02:33:11;;;;;;;10.80;2.20;;;14.10;90.80;;;;;;5095660;28;20020;-78
2024/01/03 02:35:37;;;;;;;10.07;2.33;;;14.10;90.80;;;;;;5094250;28;20399;-80
2024/01/03 02:38:03;;;;;;;11.75;2.40;;;14.10;90.80;;;;;;5095621;28;20032;-78
2024/01/03 02:40:29;;;;;;;11.75;2.17;;;14.10;90.70;;;;;;5095314;28;20392;-78
2024/01/03 02:42:55;;;;;;;14.13;2.85;;;14.10;90.80;;;;;;5094931;28;20081;-78
2024/01/03 02:45:20;;;;;;;13.07;3.15;;;14.10;90.80;;;;;;5094982;28;20047;-79
2024/01/03 02:47:46;;;;;;;8.82;1.90;;;14.10;90.90;;;;;;5094945;28;20035;-80
2024/01/03 02:50:12;;;;;;;8.23;1.63;;;14.10;90.80;;;;;;5095060;28;20032;-79
2024/01/03 02:52:38;;;;;;;7.57;2.22;;;14.10;90.80;;;;;;5094842;28;20365;-79
2024/01/03 02:55:03;;;;;;;9.10;2.25;;;14.10;90.90;;;;;;5094885;28;20087;-78
2024/01/03 02:57:29;;;;;;;10.60;2.83;;;14.10;90.90;;;;;;5094842;28;20028;-78
2024/01/03 02:59:55;;;;;;;10.65;2.33;;;14.10;90.90;;;;;;5094705;28;20036;-78
2024/01/03 03:02:21;;;;;;;12.95;2.92;;;14.20;91.00;;;;;;5093348;28;20138;-79
2024/01/03 03:04:47;;;;;;;12.80;2.42;;;14.20;90.90;;;;;;5094407;28;20036;-79
2024/01/03 03:07:12;;;;;;;8.57;2.25;;;14.20;90.90;;;;;;5094569;28;20025;-79
2024/01/03 03:09:38;;;;;;;11.90;2.33;;;14.20;90.90;;;;;;5094646;28;20111;-78
2024/01/03 03:12:04;;;;;;;12.90;2.67;;;14.20;90.90;;;;;;5094648;28;20081;-78
2024/01/03 03:14:30;;;;;;;13.15;2.83;;;14.20;90.90;;;;;;5094821;28;20048;-79
2024/01/03 03:16:55;;;;;;;13.18;3.05;;;14.20;90.90;;;;;;5094697;28;20024;-79
2024/01/03 03:19:21;;;;;;;12.57;2.35;;;14.20;91.00;;;;;;5093206;28;20033;-78
2024/01/03 03:21:47;;;;;;;9.68;1.92;;;14.10;90.90;;;;;;5094384;28;20032;-78
2024/01/03 03:24:12;;;;;;;12.52;2.42;;;14.20;91.00;;;;;;5095274;28;20039;-78
2024/01/03 03:26:38;;;;;;;10.68;2.50;;;14.10;90.90;;;;;;5094392;28;20032;-79
2024/01/03 03:29:04;;;;;;;10.38;2.22;;;14.10;90.90;;;;;;5092762;28;20036;-78
2024/01/03 03:31:29;;;;;;;12.13;2.63;;;14.20;90.90;;;;;;5094253;28;20028;-79
2024/01/03 03:33:55;;;;;;;11.25;2.40;;;14.20;91.00;;;;;;5094080;28;20051;-81
2024/01/03 03:36:21;;;;;;;18.67;2.75;;;14.20;90.90;;;;;;5093877;28;20116;-78
2024/01/03 03:38:47;;;;;;;11.30;2.65;;;14.20;90.90;;;;;;5093797;28;20484;-78
2024/01/03 03:41:13;;;;;;;11.55;2.50;;;14.20;91.00;;;;;;5093763;28;20035;-78
2024/01/03 03:43:39;;;;;;;14.02;2.70;;;14.20;90.90;;;;;;5092242;28;20515;-77
2024/01/03 03:46:06;;;;;;;11.55;2.47;;;14.20;91.00;;;;;;5093575;28;20499;-77
2024/01/03 03:48:32;;;;;;;11.60;2.42;;;14.20;91.00;;;;;;5093465;28;20032;-78
2024/01/03 03:50:58;;;;;;;14.18;2.63;;;14.30;91.00;;;;;;5093610;28;20035;-78
2024/01/03 03:53:24;;;;;;;8.32;1.85;;;14.20;91.00;;;;;;5093713;28;20031;-78
2024/01/03 03:55:49;;;;;;;8.57;2.08;;;14.20;91.00;;;;;;5093727;28;20024;-69
2024/01/03 03:58:15;;;;;;;18.60;2.92;;;14.30;91.00;;;;;;5093555;28;20391;-80
2024/01/03 04:00:41;;;;;;;13.60;2.17;;;14.30;91.00;;;;;;5095365;28;20059;-79
2024/01/03 04:03:08;;;;;;;10.57;1.88;;;14.30;91.00;;;;;;5093066;28;20028;-78
2024/01/03 04:05:38;;;;;;;12.80;2.30;;;14.30;91.00;;;;;;5091823;28;20035;-78
2024/01/03 04:08:04;;;;;;;10.05;2.10;;;14.30;91.10;;;;;;5093289;28;20036;-78
2024/01/03 04:10:29;;;;;;;11.70;2.20;;;14.30;91.00;;;;;;5093353;28;20453;-78
2024/01/03 04:12:55;;;;;;;12.25;2.00;;;14.30;91.10;;;;;;5093216;28;20110;-78
2024/01/03 04:15:22;;;;;;;10.93;2.13;;;14.30;91.00;;;;;;5093407;28;20043;-78
2024/01/03 04:17:48;;;;;;;15.23;2.50;;;14.40;91.10;;;;;;5093017;28;20395;-78
2024/01/03 04:20:14;;;;;;;8.90;2.00;;;14.30;91.00;;;;;;5093108;28;20040;-79
2024/01/03 04:22:43;;;;;;;12.82;2.45;;;14.40;91.10;;;;;;5093129;28;20102;-78
2024/01/03 04:25:09;;;;;;;10.05;2.20;;;14.40;91.00;;;;;;5093013;28;20113;-79
2024/01/03 04:27:35;;;;;;;12.98;1.92;;;14.40;91.00;;;;;;5093136;28;20442;-78
2024/01/03 04:30:01;;;;;;;9.45;2.20;;;14.40;91.20;;;;;;5092826;28;20464;-78
2024/01/03 04:32:27;;;;;;;10.35;2.45;;;14.40;91.10;;;;;;5092637;28;20032;-77
2024/01/03 04:34:53;;;;;;;11.52;1.85;;;14.40;91.10;;;;;;5093097;28;20514;-78
2024/01/03 04:37:18;;;;;;;13.02;2.63;;;14.40;91.10;;;;;;5092944;28;20028;-79
2024/01/03 04:39:44;;;;;;;11.80;2.20;;;14.40;91.10;;;;;;5092843;28;20051;-79
2024/01/03 04:42:10;;;;;;;15.35;2.38;;;14.40;91.00;;;;;;5093080;28;20450;-72
2024/01/03 04:44:36;;;;;;;8.68;1.73;;;14.40;91.00;;;;;;5092832;28;20048;-78
2024/01/03 04:47:02;;;;;;;10.98;2.10;;;14.40;91.10;;;;;;5092883;28;20395;-78
2024/01/03 04:49:31;;;;;;;12.02;2.17;;;14.40;91.00;;;;;;5092697;28;20043;-78
2024/01/03 04:51:56;;;;;;;11.18;2.47;;;14.40;91.00;;;;;;5092747;28;20024;-80
2024/01/03 04:54:22;;;;;;;11.30;2.05;;;14.40;91.00;;;;;;5092625;28;20618;-78
2024/01/03 04:56:48;;;;;;;13.57;1.90;;;14.50;91.10;;;;;;5092899;28;20020;-78
2024/01/03 04:59:14;;;;;;;13.32;2.20;;;14.50;91.20;;;;;;5093094;28;20039;-77
2024/01/03 05:01:41;;;;;;;9.68;1.90;;;14.40;91.10;;;;;;5094099;28;20612;-78
2024/01/03 05:04:07;;;;;;;15.77;2.75;;;14.50;91.10;;;;;;5093411;28;20484;-79
2024/01/03 05:06:34;;;;;;;7.32;2.00;;;14.50;91.20;;;;;;5092657;28;20085;-79
2024/01/03 05:08:59;;;;;;;9.38;1.80;;;14.50;91.20;;;;;;5092816;28;20064;-79
2024/01/03 05:11:25;;;;;;;10.95;2.67;;;14.50;91.10;;;;;;5092919;28;20489;-79
2024/01/03 05:13:51;;;;;;;9.55;2.08;;;14.50;91.20;;;;;;5097275;28;20044;-78
2024/01/03 05:16:17;;;;;;;16.38;2.92;;;14.50;91.20;;;;;;5092294;28;20111;-77
2024/01/03 05:18:43;;;;;;;8.63;2.00;;;14.50;91.20;;;;;;5092374;28;20067;-78
2024/01/03 05:21:09;;;;;;;10.18;2.35;;;14.50;91.20;;;;;;5092470;28;20415;-79
2024/01/03 05:23:34;;;;;;;10.15;2.55;;;14.50;91.10;;;;;;5092770;28;20071;-80
2024/01/03 05:26:00;;;;;;;13.40;2.30;;;14.50;91.10;;;;;;5091043;28;20143;-78
2024/01/03 05:28:26;;;;;;;14.45;1.75;;;14.50;91.10;;;;;;5092032;28;20056;-79
2024/01/03 05:30:52;;;;;;;10.20;2.08;;;14.50;91.10;;;;;;5092360;28;20044;-78
2024/01/03 05:33:17;;;;;;;9.25;2.17;;;14.50;91.10;;;;;;5092612;28;20029;-78
2024/01/03 05:35:43;;;;;;;11.75;2.55;;;14.50;91.10;;;;;;5092218;28;20087;-78
2024/01/03 05:38:09;;;;;;;8.35;2.00;;;14.50;91.20;;;;;;5092266;28;20039;-78
2024/01/03 05:40:35;;;;;;;7.55;1.60;;;14.50;91.20;;;;;;5092448;28;20032;-78
2024/01/03 05:43:00;;;;;;;14.35;2.13;;;14.50;91.10;;;;;;5093406;28;20032;-78
2024/01/03 05:45:26;;;;;;;11.77;1.88;;;14.50;91.10;;;;;;5096285;28;20074;-78
2024/01/03 05:47:52;;;;;;;14.18;2.38;;;14.50;91.20;;;;;;5095991;28;20092;-78
2024/01/03 05:50:18;;;;;;;11.88;2.13;;;14.50;91.10;;;;;;5096390;28;20445;-79
2024/01/03 05:52:43;;;;;;;10.85;1.92;;;14.60;91.20;;;;;;5096179;28;20036;-78
2024/01/03 05:55:09;;;;;;;17.08;3.38;;;14.60;91.20;;;;;;5095644;28;20400;-79
2024/01/03 05:57:35;;;;;;;10.45;2.40;;;14.60;91.20;;;;;;5095561;28;20032;-78
2024/01/03 06:00:02;;;;;;;14.20;2.28;;;14.60;91.20;;;;;;5096885;28;20071;-78
2024/01/03 06:02:27;;;;;;;14.18;2.10;;;14.60;91.50;;;;;;5096155;28;20027;-79
2024/01/03 06:04:53;;;;;;;8.13;1.80;;;14.60;91.20;;;;;;5095838;28;20111;-78
2024/01/03 06:07:19;;;;;;;11.13;2.22;;;14.60;91.20;;;;;;5095795;28;20085;-80
2024/01/03 06:09:45;;;;;;;14.45;2.28;;;14.60;91.30;;;;;;5095624;28;20032;-78
2024/01/03 06:12:10;;;;;;;12.00;2.28;;;14.60;91.30;;;;;;5095371;28;20024;-77
2024/01/03 06:14:36;;;;;;;6.60;1.90;;;14.60;91.30;;;;;;5094981;28;20125;-79
2024/01/03 06:17:02;;;;;;;10.40;2.28;;;14.70;91.30;;;;;;5095137;28;20111;-78
2024/01/03 06:19:27;;;;;;;11.77;2.10;;;14.70;91.30;;;;;;5094801;28;20032;-78
2024/01/03 06:21:53;;;;;;;10.15;2.83;;;14.70;91.40;;;;;;5094777;28;20097;-78
2024/01/03 06:24:19;;;;;;;11.48;2.15;;;14.70;91.40;;;;;;5094951;28;20385;-80
2024/01/03 06:26:44;;;;;;;10.73;2.30;;;14.70;91.40;;;;;;5094986;28;20055;-79
2024/01/03 06:29:10;;;;;;;17.23;3.03;;;14.70;91.40;;;;;;5095851;28;20036;-80
2024/01/03 06:31:36;;;;;;;12.40;2.83;;;14.70;91.40;;;;;;5097980;28;20433;-82
2024/01/03 06:34:02;;;;;;;10.10;2.63;;;14.70;91.40;;;;;;5096878;28;20058;-78
2024/01/03 06:36:27;;;;;;;13.80;3.13;;;14.70;91.40;;;;;;5094988;28;20070;-80
2024/01/03 06:38:53;;;;;;;16.00;3.33;;;14.80;91.40;;;;;;5094639;28;20081;-79
2024/01/03 06:41:19;;;;;;;8.93;2.47;;;14.70;91.40;;;;;;5094563;28;20096;-78
2024/01/03 06:43:45;;;;;;;8.60;2.33;;;14.80;91.50;;;;;;5094340;28;20044;-78
2024/01/03 06:46:10;;;;;;;12.63;2.80;;;14.80;91.50;;;;;;5094812;28;20035;-78
2024/01/03 06:48:36;;;;;;;14.07;3.15;;;14.80;91.60;;;;;;5094271;28;20062;-79
2024/01/03 06:51:03;;;;;;;6.75;2.50;;;14.70;91.50;;;;;;5094291;28;20032;-80
2024/01/03 06:53:33;;;;;;;14.95;3.10;;;14.80;91.50;;;;;;5094059;28;20125;-80
2024/01/03 06:55:59;;;;;;;12.23;3.00;;;14.80;91.60;;;;;;5094405;28;20124;-79
2024/01/03 06:58:25;;;;;;;10.93;2.95;;;14.80;91.60;;;;;;5094886;28;20457;-78
2024/01/03 07:00:51;;;;;;;14.68;3.05;;;14.80;91.60;;;;;;5094261;28;20087;-79
2024/01/03 07:03:17;;;;;;;14.82;3.67;;;14.80;91.60;;;;;;5094293;28;20060;-78
2024/01/03 07:05:43;;;;;;;13.75;3.85;;;14.80;91.50;;;;;;5094623;28;20074;-79
2024/01/03 07:08:09;;;;;;;13.00;4.25;;;14.90;91.50;;;;;;5093421;28;20035;-79
2024/01/03 07:10:36;;;;;;;15.65;4.30;;;14.90;91.50;;;;;;5094678;28;20036;-79
2024/01/03 07:13:02;;;;;;;13.95;4.95;;;14.90;91.60;;;;;;5094391;28;20093;-80
2024/01/03 07:15:28;;;;;;;12.63;4.22;;;14.90;91.50;;;;;;5094411;28;20509;-79
2024/01/03 07:17:59;;;;;;;11.30;4.07;;;14.90;91.60;;;;;;5094177;28;20134;-80
2024/01/03 07:20:25;;;;;;;14.95;5.00;;;14.90;91.50;;;;;;5093221;28;20480;-80
2024/01/03 07:22:51;;;;;;;12.10;3.88;;;15.00;91.50;;;;;;5094827;28;20074;-80
2024/01/03 07:25:17;;;;;;;13.30;3.45;;;14.90;91.50;;;;;;5094258;28;20496;-79
2024/01/03 07:27:43;;;;;;;11.40;3.17;;;15.00;91.50;;;;;;5093219;28;20032;-79
2024/01/03 07:30:10;;;;;;;13.13;3.03;;;15.00;91.50;;;;;;5093868;28;20036;-78
2024/01/03 07:32:36;;;;;;;13.93;2.50;;;15.00;91.50;;;;;;5093826;28;20021;-80
2024/01/03 07:35:02;;;;;;;11.18;2.47;;;15.00;91.40;;;;;;5093769;28;20145;-79
2024/01/03 07:37:28;;;;;;;9.55;2.58;;;15.00;91.40;;;;;;5093797;28;20038;-78
2024/01/03 07:39:53;;;;;;;14.65;2.78;;;15.00;91.40;;;;;;5093600;28;20040;-79
2024/01/03 07:42:19;;;;;;;10.45;2.30;;;15.10;91.40;;;;;;5093462;28;20028;-79
2024/01/03 07:44:45;;;;;;;14.00;2.67;;;15.00;91.40;;;;;;5093227;28;20048;-80
2024/01/03 07:47:11;;;;;;;10.73;2.30;;;15.10;91.40;;;;;;5093468;28;20480;-78
2024/01/03 07:49:38;;;;;;;10.57;2.20;;;15.10;91.40;;;;;;5091967;28;20093;-78
2024/01/03 07:52:04;;;;;;;11.50;3.25;;;15.10;91.40;;;;;;5094216;28;20032;-79
2024/01/03 07:54:31;;;;;;;8.65;2.13;;;15.10;91.40;;;;;;5100795;28;20070;-78
2024/01/03 07:57:01;;;;;;;9.10;2.33;;;15.20;91.40;;;;;;5093537;28;20107;-79
2024/01/03 07:59:26;;;;;;;12.13;3.47;;;15.20;91.40;;;;;;5093575;28;20127;-79
2024/01/03 08:01:52;;;;;;;13.07;2.85;;;15.20;91.40;;;;;;5093246;28;20031;-79
2024/01/03 08:04:18;;;;;;;10.73;2.78;;;15.20;91.40;;;;;;5093173;28;20036;-80
2024/01/03 08:06:44;;;;;;;8.55;2.47;;;15.20;91.40;;;;;;5096295;28;20028;-79
2024/01/03 08:09:10;;;;;;;10.05;2.70;;;15.20;91.30;;;;;;5094657;28;20044;-79
2024/01/03 08:11:36;;;;;;;13.55;2.85;;;15.20;91.40;;;;;;5094430;28;20024;-80
2024/01/03 08:14:02;;;;;;;8.73;2.50;;;15.20;91.30;;;;;;5094138;28;20044;-79
2024/01/03 08:16:28;;;;;;;15.77;2.90;;;15.20;91.40;;;;;;5093557;28;20116;-79
2024/01/03 08:18:54;;;;;;;10.75;2.85;;;15.30;91.40;;;;;;5093788;28;20039;-80
2024/01/03 08:21:20;;;;;;;9.95;3.15;;;15.30;91.30;;;;;;5093650;28;20040;-80
2024/01/03 08:23:45;;;;;;;12.95;2.85;;;15.30;91.30;;;;;;5093175;28;20116;-80
2024/01/03 08:26:12;;;;;;;11.95;3.08;;;15.30;91.30;;;;;;5093162;28;20056;-80
2024/01/03 08:28:40;;;;;;;13.55;3.08;;;15.40;91.40;;;;;;5092869;28;20056;-81
2024/01/03 08:31:08;;;;;;;18.40;2.90;;;15.40;91.20;;;;;;5092753;28;20028;-79
2024/01/03 08:33:35;;;;;;;12.00;2.83;;;15.50;91.30;;;;;;5092352;28;20161;-81
2024/01/03 08:36:02;;;;;;;11.65;3.17;;;15.60;91.20;;;;;;5092914;28;20153;-79
2024/01/03 08:38:28;;;;;;;11.73;2.63;;;15.60;91.20;;;;;;5092775;28;20434;-78
2024/01/03 08:40:53;;;;;;;10.45;2.88;;;15.60;91.10;;;;;;5092685;28;20036;-79
2024/01/03 08:43:19;;;;;;;8.48;2.58;;;15.70;91.10;;;;;;5092595;28;20044;-80
2024/01/03 08:45:45;;;;;;;16.55;3.10;;;15.60;91.10;;;;;;5092561;28;20543;-80
2024/01/03 08:48:10;;;;;;;9.25;2.88;;;15.70;91.10;;;;;;5092673;28;20093;-81
2024/01/03 08:50:36;;;;;;;15.85;2.92;;;15.70;91.10;;;;;;5094063;28;20124;-81
2024/01/03 08:53:02;;;;;;;11.48;2.50;;;15.60;91.10;;;;;;5094920;28;20068;-82
2024/01/03 08:55:27;;;;;;;13.65;3.35;;;15.60;91.10;;;;;;5093297;28;20040;-80
2024/01/03 08:57:56;;;;;;;10.20;2.75;;;15.60;91.10;;;;;;5092766;28;20392;-78
2024/01/03 09:00:24;;;;;;;15.05;2.90;;;15.60;91.10;;;;;;5091103;28;20028;-81
2024/01/03 09:02:50;;;;;;;14.27;3.40;;;15.60;91.20;;;;;;5092354;28;20087;-80
2024/01/03 09:05:16;;;;;;;10.85;4.03;;;15.60;91.20;;;;;;5092491;28;20040;-80
2024/01/03 09:07:45;;;;;;;17.92;3.97;;;15.60;91.20;;;;;;5092574;28;20028;-80
2024/01/03 09:10:10;;;;;;;13.68;4.45;;;15.70;91.20;;;;;;5092141;28;20039;-80
2024/01/03 09:12:36;;;;;;;10.30;4.43;;;15.70;91.10;;;;;;5092433;28;20357;-79
2024/01/03 09:15:02;;;;;;;14.30;4.38;;;15.70;91.00;;;;;;5091328;28;20041;-80
2024/01/03 09:17:28;;;;;;;17.02;4.07;;;15.80;91.00;;;;;;5094969;28;20039;-80
2024/01/03 09:19:53;;;;;;;10.65;3.45;;;15.80;91.00;;;;;;5097396;28;20111;-80
2024/01/03 09:22:19;;;;;;;12.68;3.75;;;15.90;91.00;;;;;;5097127;28;20441;-80
2024/01/03 09:24:45;;;;;;;13.98;3.78;;;15.90;91.00;;;;;;5096449;28;20039;-80
2024/01/03 09:27:11;;;;;;;14.63;3.25;;;16.00;91.00;;;;;;5096999;28;20032;-80
2024/01/03 09:29:36;;;;;;;16.65;3.80;;;16.10;91.00;;;;;;5096689;28;20443;-80
2024/01/03 09:32:02;;;;;;;14.38;3.20;;;16.00;90.90;;;;;;5096638;28;20077;-81
2024/01/03 09:34:28;;;;;;;14.27;3.28;;;16.10;91.00;;;;;;5096414;28;20079;-81
2024/01/03 09:36:54;;;;;;;10.77;3.08;;;16.10;90.80;;;;;;5096050;28;20078;-79
2024/01/03 09:39:20;;;;;;;13.30;3.53;;;16.10;91.00;;;;;;5095774;28;20493;-79
2024/01/03 09:41:47;;;;;;;11.85;2.83;;;16.10;91.00;;;;;;5095915;28;20106;-80
2024/01/03 09:44:14;;;;;;;15.70;3.20;;;16.10;90.90;;;;;;5095861;28;20170;-79
2024/01/03 09:46:40;;;;;;;17.38;4.10;;;16.10;90.90;;;;;;5096282;28;20032;-79
2024/01/03 09:49:07;;;;;;;8.98;3.38;;;16.10;90.90;;;;;;5096250;28;20047;-79
2024/01/03 09:51:33;;;;;;;14.15;3.63;;;16.10;91.00;;;;;;5094665;28;20537;-81
2024/01/03 09:54:00;;;;;;;13.63;4.60;;;16.10;90.90;;;;;;5096412;28;20404;-78
2024/01/03 09:56:25;;;;;;;19.17;6.78;;;16.10;91.00;;;;;;5096281;28;20501;-80
2024/01/03 09:58:51;;;;;;;14.75;4.90;;;16.20;91.00;;;;;;5095894;28;20024;-80
2024/01/03 10:01:17;;;;;;;11.82;4.18;;;16.20;91.00;;;;;;5096852;28;20103;-80
2024/01/03 10:03:43;;;;;;;16.02;4.22;;;16.20;90.90;;;;;;5095678;28;20032;-79
2024/01/03 10:06:13;;;;;;;14.32;3.90;;;16.20;91.00;;;;;;5096054;28;20036;-81
2024/01/03 10:08:55;;;;;;;14.80;3.75;;;16.20;90.90;;;;;;5095772;28;20507;-80
2024/01/03 10:11:21;;;;;;;14.52;3.35;;;16.30;90.80;;;;;;5095683;28;20036;-80
2024/01/03 10:13:52;;;;;;;18.40;3.53;;;16.30;90.70;;;;;;5095285;28;20085;-80
2024/01/03 10:16:24;;;;;;;14.60;3.90;;;16.40;90.80;;;;;;5094192;28;20035;-79
2024/01/03 10:19:18;;;;;;;15.07;3.30;;;16.40;90.70;;;;;;5095646;28;20036;-80
2024/01/03 10:21:51;;;;;;;17.90;3.78;;;16.50;90.40;;;;;;5095679;28;20071;-81
2024/01/03 10:24:17;;;;;;;15.90;3.83;;;16.50;90.40;;;;;;5096578;28;20073;-80
2024/01/03 10:26:45;;;;;;;19.55;6.70;;;16.60;90.50;;;;;;5095537;28;20028;-80
2024/01/03 10:29:16;;;;;;;17.27;4.40;;;16.50;90.40;;;;;;5094528;28;20024;-80
2024/01/03 10:31:43;;;;;;;15.65;3.88;;;16.50;90.40;;;;;;5095363;28;20107;-80
2024/01/03 10:34:15;;;;;;;19.15;3.10;;;16.50;90.40;;;;;;5095031;28;20040;-79
2024/01/03 10:36:42;;;;;;;17.42;3.20;;;16.50;90.40;;;;;;5095293;28;20035;-80
2024/01/03 10:39:14;;;;;;;15.57;3.15;;;16.50;90.40;;;;;;5098750;28;20388;-79
2024/01/03 10:41:45;;;;;;;14.02;2.83;;;16.50;90.40;;;;;;5094937;28;20039;-79
2024/01/03 10:44:14;;;;;;;17.92;3.30;;;16.50;90.40;;;;;;5094552;28;20052;-79
2024/01/03 10:46:44;;;;;;;12.40;3.13;;;16.50;90.30;;;;;;5094861;28;20059;-78
2024/01/03 10:49:10;;;;;;;13.40;3.22;;;16.50;90.30;;;;;;5094871;28;20472;-81
2024/01/03 10:51:41;;;;;;;14.35;3.22;;;16.60;90.20;;;;;;5095192;28;20087;-78
2024/01/03 10:54:14;;;;;;;12.48;2.90;;;16.60;90.20;;;;;;5094882;28;20063;-81
2024/01/03 10:57:00;;;;;;;12.00;3.25;;;16.70;90.10;;;;;;5094736;28;20032;-80
2024/01/03 10:59:32;;;;;;;14.20;3.45;;;16.70;90.00;;;;;;5094805;28;20036;-82
2024/01/03 11:02:03;;;;;;;16.10;3.97;;;16.80;90.00;;;;;;5094585;28;20047;-80
2024/01/03 11:04:43;;;;;;;13.60;3.78;;;16.80;90.00;;;;;;5094285;28;20028;-80
2024/01/03 11:07:28;;;;;;;12.60;3.80;;;16.80;90.00;;;;;;5094919;28;20468;-80
2024/01/03 11:09:54;;;;;;;11.05;3.72;;;16.80;89.90;;;;;;5094898;28;20028;-80
2024/01/03 11:12:27;;;;;;;17.27;3.75;;;16.80;89.70;;;;;;5094514;28;20039;-78
2024/01/03 11:14:53;;;;;;;12.45;3.50;;;16.90;89.70;;;;;;5094371;28;20052;-79
2024/01/03 11:17:33;;;;;;;14.35;4.00;;;16.80;89.40;;;;;;5092832;28;20092;-79
2024/01/03 11:20:07;;;;;;;12.02;3.70;;;16.90;89.30;;;;;;5094612;28;20111;-80
2024/01/03 11:22:58;;;;;;;10.98;3.60;;;16.90;89.10;;;;;;5093920;28;20028;-78
2024/01/03 11:25:46;;;;;;;18.05;4.05;;;16.90;88.80;;;;;;5093845;28;20028;-80
2024/01/03 11:28:36;;;;;;;14.20;4.32;;;16.90;88.50;;;;;;5094215;28;20046;-80
2024/01/03 11:31:02;;;;;;;14.18;3.58;;;17.00;88.60;;;;;;5095322;28;20112;-80
2024/01/03 11:33:30;;;;;;;15.05;3.83;;;17.00;88.60;;;;;;5094164;28;20036;-80
2024/01/03 11:35:56;;;;;;;12.02;2.90;;;17.00;88.40;;;;;;5093866;28;20036;-80
2024/01/03 11:38:41;;;;;;;10.82;3.42;;;17.10;88.30;;;;;;5094236;28;20341;-79
2024/01/03 11:41:08;;;;;;;9.80;2.85;;;17.10;88.30;;;;;;5094630;28;20484;-80
2024/01/03 11:43:34;;;;;;;10.30;3.25;;;17.10;88.10;;;;;;5095435;28;20377;-80
2024/01/03 11:46:10;;;;;;;13.15;3.33;;;17.10;87.90;;;;;;5094052;28;20036;-79
2024/01/03 11:48:37;;;;;;;12.95;3.00;;;17.10;88.20;;;;;;5093375;28;20032;-81
2024/01/03 11:51:23;;;;;;;15.00;3.70;;;17.10;88.10;;;;;;5092024;28;20075;-79
2024/01/03 11:53:50;;;;;;;13.80;3.45;;;17.00;88.30;;;;;;5093294;28;20042;-79
2024/01/03 11:56:33;;;;;;;15.38;3.80;;;17.00;88.30;;;;;;5093191;28;20054;-79
2024/01/03 11:59:02;;;;;;;10.50;3.42;;;17.00;88.60;;;;;;5093597;28;20060;-79
2024/01/03 12:01:28;;;;;;;12.68;3.70;;;16.90;89.00;;;;;;5093399;28;20123;-79
2024/01/03 12:04:13;;;;;;;11.40;3.50;;;16.90;89.10;;;;;;5093343;28;20108;-79
2024/01/03 12:06:41;;;;;;;14.80;3.35;;;16.90;89.30;;;;;;5093150;28;20032;-79
2024/01/03 12:09:07;;;;;;;12.95;3.42;;;16.90;89.30;;;;;;5093453;28;20036;-78
2024/01/03 12:11:34;;;;;;;12.63;3.83;;;17.00;89.50;;;;;;5093178;28;20036;-80
2024/01/03 12:14:00;;;;;;;18.88;4.28;;;17.00;89.60;;;;;;5097230;28;20075;-80
2024/01/03 12:16:26;;;;;;;13.98;3.47;;;17.00;89.50;;;;;;5093786;28;20368;-80
2024/01/03 12:18:53;;;;;;;12.80;3.65;;;17.00;89.70;;;;;;5093047;28;20036;-78
2024/01/03 12:21:19;;;;;;;13.75;3.92;;;17.00;89.80;;;;;;5093121;28;20032;-80
2024/01/03 12:23:55;;;;;;;13.50;3.88;;;17.00;89.50;;;;;;5091873;28;20364;-79
2024/01/03 12:26:21;;;;;;;13.70;3.80;;;17.00;89.70;;;;;;5092713;28;20201;-81
2024/01/03 12:28:53;;;;;;;15.20;4.18;;;17.00;89.70;;;;;;5093840;28;20064;-80
2024/01/03 12:31:20;;;;;;;13.70;3.85;;;17.00;89.70;;;;;;5093467;28;20489;-79
2024/01/03 12:33:49;;;;;;;15.88;3.80;;;17.10;89.70;;;;;;5093431;28;20032;-80
2024/01/03 12:36:14;;;;;;;14.25;3.95;;;17.10;89.40;;;;;;5093274;28;20043;-81
2024/01/03 12:38:40;;;;;;;16.48;3.35;;;17.10;89.40;;;;;;5093456;28;20476;-82